Terminal Aerodrome Forecast
Issued by NWS La Crosse, WI

Home | Current Version | Previous Version | Text Only | Print | Product List | Glossary On
Versions: 1 2 3 4 5 6 7 8 9 10 11 12 13 14 15 16 17 18 19 20 21 22 23 24 25
000
FTUS43 KARX 241125
TAFRST
TAF
KRST 241125Z 2412/2512 13008KT P6SM VCSH BKN050
     FM241500 12012KT 4SM -SHRA BR SCT015 BKN025
     FM241900 12015KT 4SM -SHRA BR SCT008 OVC015
     FM242300 10012KT 4SM BR VCSH OVC008
     FM250200 13008KT 3SM -RA BR OVC005
     FM250900 22006KT 5SM BR OVC005=

USA.gov is the U.S. government's official web portal to all federal, state and local government web resources and services.